sensor_id;sensor_type;location;lat;lon;timestamp;P1;durP1;ratioP1;P2;durP2;ratioP2
48124;SDS011;33908;47.436;18.918;2022-08-03T00:00:34;1.65;;;1.27;;
48124;SDS011;33908;47.436;18.918;2022-08-03T00:03:02;2.45;;;1.40;;
48124;SDS011;33908;47.436;18.918;2022-08-03T00:05:31;1.77;;;1.42;;
48124;SDS011;33908;47.436;18.918;2022-08-03T00:08:01;1.55;;;1.20;;
48124;SDS011;33908;47.436;18.918;2022-08-03T00:10:31;1.70;;;1.60;;
48124;SDS011;33908;47.436;18.918;2022-08-03T00:13:00;11.38;;;1.50;;
48124;SDS011;33908;47.436;18.918;2022-08-03T00:15:29;3.22;;;1.60;;
48124;SDS011;33908;47.436;18.918;2022-08-03T00:17:57;1.80;;;1.50;;
48124;SDS011;33908;47.436;18.918;2022-08-03T00:20:26;1.55;;;1.20;;
48124;SDS011;33908;47.436;18.918;2022-08-03T00:22:55;1.55;;;1.30;;
48124;SDS011;33908;47.436;18.918;2022-08-03T00:25:24;4.97;;;1.40;;
48124;SDS011;33908;47.436;18.918;2022-08-03T00:27:52;1.92;;;1.42;;
48124;SDS011;33908;47.436;18.918;2022-08-03T00:30:22;1.90;;;1.70;;
48124;SDS011;33908;47.436;18.918;2022-08-03T00:32:54;1.40;;;1.30;;
48124;SDS011;33908;47.436;18.918;2022-08-03T00:35:22;2.20;;;1.65;;
48124;SDS011;33908;47.436;18.918;2022-08-03T00:38:03;3.33;;;1.80;;
48124;SDS011;33908;47.436;18.918;2022-08-03T00:40:31;2.00;;;1.80;;
48124;SDS011;33908;47.436;18.918;2022-08-03T00:43:01;1.55;;;1.45;;
48124;SDS011;33908;47.436;18.918;2022-08-03T00:45:31;4.82;;;1.67;;
48124;SDS011;33908;47.436;18.918;2022-08-03T00:48:00;1.45;;;1.35;;
48124;SDS011;33908;47.436;18.918;2022-08-03T00:50:31;1.65;;;1.55;;
48124;SDS011;33908;47.436;18.918;2022-08-03T00:53:04;1.75;;;1.65;;
48124;SDS011;33908;47.436;18.918;2022-08-03T00:55:33;2.12;;;1.58;;
48124;SDS011;33908;47.436;18.918;2022-08-03T00:58:06;2.40;;;2.20;;
48124;SDS011;33908;47.436;18.918;2022-08-03T01:00:36;2.87;;;1.70;;
48124;SDS011;33908;47.436;18.918;2022-08-03T01:11:30;1.90;;;1.77;;
48124;SDS011;33908;47.436;18.918;2022-08-03T01:16:51;2.35;;;2.15;;
48124;SDS011;33908;47.436;18.918;2022-08-03T01:25:05;1.80;;;1.70;;
48124;SDS011;33908;47.436;18.918;2022-08-03T01:30:37;1.62;;;1.52;;
48124;SDS011;33908;47.436;18.918;2022-08-03T01:33:11;4.20;;;2.72;;
48124;SDS011;33908;47.436;18.918;2022-08-03T01:35:51;2.17;;;1.98;;
48124;SDS011;33908;47.436;18.918;2022-08-03T01:38:33;4.05;;;1.95;;
48124;SDS011;33908;47.436;18.918;2022-08-03T01:41:03;1.90;;;1.80;;
48124;SDS011;33908;47.436;18.918;2022-08-03T01:43:34;2.70;;;2.42;;
48124;SDS011;33908;47.436;18.918;2022-08-03T01:46:24;2.00;;;1.80;;
48124;SDS011;33908;47.436;18.918;2022-08-03T01:48:52;2.97;;;2.00;;
48124;SDS011;33908;47.436;18.918;2022-08-03T01:51:21;2.40;;;2.20;;
48124;SDS011;33908;47.436;18.918;2022-08-03T01:53:49;2.35;;;2.12;;
48124;SDS011;33908;47.436;18.918;2022-08-03T01:56:18;3.60;;;1.95;;
48124;SDS011;33908;47.436;18.918;2022-08-03T01:58:47;4.25;;;2.20;;
48124;SDS011;33908;47.436;18.918;2022-08-03T02:01:16;2.55;;;2.35;;
48124;SDS011;33908;47.436;18.918;2022-08-03T02:03:45;4.57;;;2.42;;
48124;SDS011;33908;47.436;18.918;2022-08-03T02:06:28;3.50;;;2.25;;
48124;SDS011;33908;47.436;18.918;2022-08-03T02:09:19;5.53;;;2.10;;
48124;SDS011;33908;47.436;18.918;2022-08-03T02:11:48;2.35;;;2.05;;
48124;SDS011;33908;47.436;18.918;2022-08-03T02:14:18;3.03;;;2.37;;
48124;SDS011;33908;47.436;18.918;2022-08-03T02:16:46;2.78;;;2.20;;
48124;SDS011;33908;47.436;18.918;2022-08-03T02:19:15;3.80;;;2.80;;
48124;SDS011;33908;47.436;18.918;2022-08-03T02:21:44;2.12;;;1.85;;
48124;SDS011;33908;47.436;18.918;2022-08-03T02:24:28;3.50;;;2.80;;
48124;SDS011;33908;47.436;18.918;2022-08-03T02:26:57;2.75;;;2.25;;
48124;SDS011;33908;47.436;18.918;2022-08-03T02:29:28;3.62;;;2.17;;
48124;SDS011;33908;47.436;18.918;2022-08-03T02:32:11;2.58;;;2.37;;
48124;SDS011;33908;47.436;18.918;2022-08-03T02:34:41;2.53;;;2.33;;
48124;SDS011;33908;47.436;18.918;2022-08-03T02:37:12;3.17;;;2.80;;
48124;SDS011;33908;47.436;18.918;2022-08-03T02:39:40;3.45;;;2.85;;
48124;SDS011;33908;47.436;18.918;2022-08-03T02:42:09;6.82;;;3.25;;
48124;SDS011;33908;47.436;18.918;2022-08-03T02:47:14;4.95;;;2.55;;
48124;SDS011;33908;47.436;18.918;2022-08-03T02:49:43;4.28;;;2.72;;
48124;SDS011;33908;47.436;18.918;2022-08-03T02:52:18;6.62;;;3.00;;
48124;SDS011;33908;47.436;18.918;2022-08-03T02:54:49;4.55;;;2.60;;
48124;SDS011;33908;47.436;18.918;2022-08-03T02:57:19;3.00;;;2.70;;
48124;SDS011;33908;47.436;18.918;2022-08-03T02:59:48;3.37;;;2.55;;
48124;SDS011;33908;47.436;18.918;2022-08-03T03:02:18;4.47;;;2.70;;
48124;SDS011;33908;47.436;18.918;2022-08-03T03:04:47;2.67;;;2.47;;
48124;SDS011;33908;47.436;18.918;2022-08-03T03:07:36;3.28;;;2.70;;
48124;SDS011;33908;47.436;18.918;2022-08-03T03:10:22;6.82;;;2.83;;
48124;SDS011;33908;47.436;18.918;2022-08-03T03:15:25;2.80;;;2.53;;
48124;SDS011;33908;47.436;18.918;2022-08-03T03:17:54;6.50;;;2.95;;
48124;SDS011;33908;47.436;18.918;2022-08-03T03:20:22;5.62;;;2.78;;
48124;SDS011;33908;47.436;18.918;2022-08-03T03:22:57;4.82;;;3.90;;
48124;SDS011;33908;47.436;18.918;2022-08-03T03:25:29;3.10;;;2.90;;
48124;SDS011;33908;47.436;18.918;2022-08-03T03:27:59;2.65;;;2.45;;
48124;SDS011;33908;47.436;18.918;2022-08-03T03:30:28;3.90;;;2.95;;
48124;SDS011;33908;47.436;18.918;2022-08-03T03:32:56;3.30;;;3.00;;
48124;SDS011;33908;47.436;18.918;2022-08-03T03:35:25;3.75;;;3.37;;
48124;SDS011;33908;47.436;18.918;2022-08-03T03:37:54;2.65;;;2.45;;
48124;SDS011;33908;47.436;18.918;2022-08-03T03:40:22;3.28;;;3.00;;
48124;SDS011;33908;47.436;18.918;2022-08-03T03:42:51;3.53;;;3.22;;
48124;SDS011;33908;47.436;18.918;2022-08-03T03:45:19;6.28;;;3.30;;
48124;SDS011;33908;47.436;18.918;2022-08-03T03:47:50;3.05;;;2.78;;
48124;SDS011;33908;47.436;18.918;2022-08-03T03:50:18;4.37;;;3.35;;
48124;SDS011;33908;47.436;18.918;2022-08-03T03:52:48;4.10;;;3.58;;
48124;SDS011;33908;47.436;18.918;2022-08-03T03:55:16;6.20;;;3.28;;
48124;SDS011;33908;47.436;18.918;2022-08-03T03:57:45;5.10;;;3.40;;
48124;SDS011;33908;47.436;18.918;2022-08-03T04:00:14;3.95;;;3.20;;
48124;SDS011;33908;47.436;18.918;2022-08-03T04:02:44;5.25;;;3.53;;
48124;SDS011;33908;47.436;18.918;2022-08-03T04:05:14;5.82;;;4.28;;
48124;SDS011;33908;47.436;18.918;2022-08-03T04:08:08;5.37;;;4.80;;
48124;SDS011;33908;47.436;18.918;2022-08-03T04:13:49;7.80;;;4.65;;
48124;SDS011;33908;47.436;18.918;2022-08-03T04:16:20;6.18;;;4.35;;
48124;SDS011;33908;47.436;18.918;2022-08-03T04:18:51;6.93;;;4.70;;
48124;SDS011;33908;47.436;18.918;2022-08-03T04:21:22;6.45;;;4.30;;
48124;SDS011;33908;47.436;18.918;2022-08-03T04:23:53;6.53;;;4.40;;
48124;SDS011;33908;47.436;18.918;2022-08-03T04:26:24;4.70;;;4.28;;
48124;SDS011;33908;47.436;18.918;2022-08-03T04:28:54;5.20;;;4.18;;
48124;SDS011;33908;47.436;18.918;2022-08-03T04:31:22;4.40;;;3.90;;
48124;SDS011;33908;47.436;18.918;2022-08-03T04:33:52;5.37;;;4.85;;
48124;SDS011;33908;47.436;18.918;2022-08-03T04:36:22;5.62;;;4.72;;
48124;SDS011;33908;47.436;18.918;2022-08-03T04:39:12;6.72;;;4.55;;
48124;SDS011;33908;47.436;18.918;2022-08-03T04:41:41;7.90;;;4.40;;
48124;SDS011;33908;47.436;18.918;2022-08-03T04:44:30;6.50;;;3.95;;
48124;SDS011;33908;47.436;18.918;2022-08-03T04:46:58;6.70;;;4.35;;
48124;SDS011;33908;47.436;18.918;2022-08-03T04:49:27;6.07;;;4.45;;
48124;SDS011;33908;47.436;18.918;2022-08-03T04:51:55;5.28;;;4.22;;
48124;SDS011;33908;47.436;18.918;2022-08-03T04:54:23;8.55;;;4.60;;
48124;SDS011;33908;47.436;18.918;2022-08-03T04:56:51;4.80;;;4.37;;
48124;SDS011;33908;47.436;18.918;2022-08-03T04:59:18;5.95;;;4.80;;
48124;SDS011;33908;47.436;18.918;2022-08-03T05:01:46;9.65;;;5.18;;
48124;SDS011;33908;47.436;18.918;2022-08-03T05:04:14;6.53;;;5.12;;
48124;SDS011;33908;47.436;18.918;2022-08-03T05:06:42;7.37;;;4.32;;
48124;SDS011;33908;47.436;18.918;2022-08-03T05:09:15;10.07;;;4.45;;
48124;SDS011;33908;47.436;18.918;2022-08-03T05:12:06;7.55;;;4.47;;
48124;SDS011;33908;47.436;18.918;2022-08-03T05:14:41;5.28;;;4.45;;
48124;SDS011;33908;47.436;18.918;2022-08-03T05:17:10;5.72;;;4.90;;
48124;SDS011;33908;47.436;18.918;2022-08-03T05:19:39;9.38;;;5.07;;
48124;SDS011;33908;47.436;18.918;2022-08-03T05:22:12;5.62;;;4.65;;
48124;SDS011;33908;47.436;18.918;2022-08-03T05:24:41;7.85;;;5.05;;
48124;SDS011;33908;47.436;18.918;2022-08-03T05:27:10;8.93;;;4.62;;
48124;SDS011;33908;47.436;18.918;2022-08-03T05:29:44;6.00;;;4.87;;
48124;SDS011;33908;47.436;18.918;2022-08-03T05:32:14;9.85;;;5.55;;
48124;SDS011;33908;47.436;18.918;2022-08-03T05:34:45;5.57;;;4.35;;
48124;SDS011;33908;47.436;18.918;2022-08-03T05:37:13;8.02;;;4.35;;
48124;SDS011;33908;47.436;18.918;2022-08-03T05:39:44;7.22;;;5.18;;
48124;SDS011;33908;47.436;18.918;2022-08-03T05:42:14;7.20;;;4.90;;
48124;SDS011;33908;47.436;18.918;2022-08-03T05:44:43;7.40;;;5.30;;
48124;SDS011;33908;47.436;18.918;2022-08-03T05:47:12;5.47;;;4.97;;
48124;SDS011;33908;47.436;18.918;2022-08-03T05:49:43;5.50;;;4.68;;
48124;SDS011;33908;47.436;18.918;2022-08-03T05:52:11;5.30;;;4.80;;
48124;SDS011;33908;47.436;18.918;2022-08-03T05:54:44;5.70;;;4.95;;
48124;SDS011;33908;47.436;18.918;2022-08-03T05:57:27;5.32;;;4.82;;
48124;SDS011;33908;47.436;18.918;2022-08-03T05:59:55;4.70;;;4.30;;
48124;SDS011;33908;47.436;18.918;2022-08-03T06:02:25;6.20;;;5.70;;
48124;SDS011;33908;47.436;18.918;2022-08-03T06:04:54;5.68;;;5.07;;
48124;SDS011;33908;47.436;18.918;2022-08-03T06:07:23;6.47;;;5.75;;
48124;SDS011;33908;47.436;18.918;2022-08-03T06:09:51;6.40;;;5.05;;
48124;SDS011;33908;47.436;18.918;2022-08-03T06:12:44;8.80;;;5.55;;
48124;SDS011;33908;47.436;18.918;2022-08-03T06:15:25;9.40;;;5.28;;
48124;SDS011;33908;47.436;18.918;2022-08-03T06:17:55;9.10;;;4.85;;
48124;SDS011;33908;47.436;18.918;2022-08-03T06:20:28;6.65;;;5.47;;
48124;SDS011;33908;47.436;18.918;2022-08-03T06:22:57;4.47;;;4.07;;
48124;SDS011;33908;47.436;18.918;2022-08-03T06:25:27;5.57;;;5.07;;
48124;SDS011;33908;47.436;18.918;2022-08-03T06:27:56;7.43;;;4.43;;
48124;SDS011;33908;47.436;18.918;2022-08-03T06:30:33;6.90;;;4.43;;
48124;SDS011;33908;47.436;18.918;2022-08-03T06:35:35;6.22;;;4.87;;
48124;SDS011;33908;47.436;18.918;2022-08-03T06:38:09;6.03;;;4.78;;
48124;SDS011;33908;47.436;18.918;2022-08-03T06:40:38;5.78;;;5.28;;
48124;SDS011;33908;47.436;18.918;2022-08-03T06:43:07;6.25;;;5.10;;
48124;SDS011;33908;47.436;18.918;2022-08-03T06:45:40;5.70;;;5.10;;
48124;SDS011;33908;47.436;18.918;2022-08-03T06:48:13;5.80;;;5.30;;
48124;SDS011;33908;47.436;18.918;2022-08-03T06:50:44;6.15;;;5.22;;
48124;SDS011;33908;47.436;18.918;2022-08-03T06:53:17;7.07;;;5.47;;
48124;SDS011;33908;47.436;18.918;2022-08-03T06:55:50;5.35;;;4.85;;
48124;SDS011;33908;47.436;18.918;2022-08-03T06:58:23;5.80;;;4.80;;
48124;SDS011;33908;47.436;18.918;2022-08-03T07:00:51;5.75;;;5.15;;
48124;SDS011;33908;47.436;18.918;2022-08-03T07:03:21;5.32;;;4.80;;
48124;SDS011;33908;47.436;18.918;2022-08-03T07:05:51;7.43;;;5.65;;
48124;SDS011;33908;47.436;18.918;2022-08-03T07:08:21;6.30;;;5.70;;
48124;SDS011;33908;47.436;18.918;2022-08-03T07:11:00;6.07;;;4.87;;
48124;SDS011;33908;47.436;18.918;2022-08-03T07:13:32;9.02;;;5.45;;
48124;SDS011;33908;47.436;18.918;2022-08-03T07:16:02;6.25;;;5.60;;
48124;SDS011;33908;47.436;18.918;2022-08-03T07:18:36;8.50;;;5.20;;
48124;SDS011;33908;47.436;18.918;2022-08-03T07:21:05;5.55;;;4.90;;
48124;SDS011;33908;47.436;18.918;2022-08-03T07:23:34;8.63;;;5.75;;
48124;SDS011;33908;47.436;18.918;2022-08-03T07:26:04;7.35;;;5.22;;
48124;SDS011;33908;47.436;18.918;2022-08-03T07:28:34;7.12;;;5.43;;
48124;SDS011;33908;47.436;18.918;2022-08-03T07:31:02;6.43;;;5.53;;
48124;SDS011;33908;47.436;18.918;2022-08-03T07:33:33;8.45;;;5.10;;
48124;SDS011;33908;47.436;18.918;2022-08-03T07:36:05;9.95;;;5.25;;
48124;SDS011;33908;47.436;18.918;2022-08-03T07:38:34;5.07;;;4.57;;
48124;SDS011;33908;47.436;18.918;2022-08-03T07:41:06;10.60;;;5.45;;
48124;SDS011;33908;47.436;18.918;2022-08-03T07:43:37;6.35;;;5.55;;
48124;SDS011;33908;47.436;18.918;2022-08-03T07:46:07;6.82;;;5.43;;
48124;SDS011;33908;47.436;18.918;2022-08-03T07:48:35;9.32;;;5.80;;
48124;SDS011;33908;47.436;18.918;2022-08-03T07:51:04;5.78;;;5.25;;
48124;SDS011;33908;47.436;18.918;2022-08-03T07:56:17;6.28;;;5.25;;
48124;SDS011;33908;47.436;18.918;2022-08-03T07:58:48;7.35;;;5.03;;
48124;SDS011;33908;47.436;18.918;2022-08-03T08:01:19;8.32;;;5.40;;
48124;SDS011;33908;47.436;18.918;2022-08-03T08:03:59;9.13;;;5.70;;
48124;SDS011;33908;47.436;18.918;2022-08-03T08:06:28;7.82;;;5.30;;
48124;SDS011;33908;47.436;18.918;2022-08-03T08:09:04;5.32;;;4.90;;
48124;SDS011;33908;47.436;18.918;2022-08-03T08:14:15;5.32;;;4.82;;
48124;SDS011;33908;47.436;18.918;2022-08-03T08:16:43;6.90;;;5.28;;
48124;SDS011;33908;47.436;18.918;2022-08-03T08:19:16;5.18;;;4.68;;
48124;SDS011;33908;47.436;18.918;2022-08-03T08:21:56;5.35;;;4.85;;
48124;SDS011;33908;47.436;18.918;2022-08-03T08:24:40;5.68;;;4.60;;
48124;SDS011;33908;47.436;18.918;2022-08-03T08:29:41;4.97;;;4.35;;
48124;SDS011;33908;47.436;18.918;2022-08-03T08:32:22;7.97;;;5.07;;
48124;SDS011;33908;47.436;18.918;2022-08-03T08:34:50;5.43;;;4.93;;
48124;SDS011;33908;47.436;18.918;2022-08-03T08:37:26;4.85;;;4.45;;
48124;SDS011;33908;47.436;18.918;2022-08-03T08:39:55;5.80;;;4.20;;
48124;SDS011;33908;47.436;18.918;2022-08-03T08:42:26;4.80;;;4.10;;
48124;SDS011;33908;47.436;18.918;2022-08-03T08:47:44;7.90;;;4.75;;
48124;SDS011;33908;47.436;18.918;2022-08-03T08:50:19;6.12;;;4.40;;
48124;SDS011;33908;47.436;18.918;2022-08-03T08:55:37;6.15;;;4.28;;
48124;SDS011;33908;47.436;18.918;2022-08-03T08:58:29;4.90;;;4.50;;
48124;SDS011;33908;47.436;18.918;2022-08-03T09:01:02;5.00;;;4.50;;
48124;SDS011;33908;47.436;18.918;2022-08-03T09:03:32;5.07;;;4.68;;
48124;SDS011;33908;47.436;18.918;2022-08-03T09:06:05;4.95;;;4.50;;
48124;SDS011;33908;47.436;18.918;2022-08-03T09:08:33;4.72;;;4.32;;
48124;SDS011;33908;47.436;18.918;2022-08-03T09:11:06;4.25;;;3.85;;
48124;SDS011;33908;47.436;18.918;2022-08-03T09:13:41;5.82;;;4.25;;
48124;SDS011;33908;47.436;18.918;2022-08-03T09:16:15;4.37;;;4.05;;
48124;SDS011;33908;47.436;18.918;2022-08-03T09:18:46;4.93;;;4.22;;
48124;SDS011;33908;47.436;18.918;2022-08-03T09:21:24;8.35;;;4.75;;
48124;SDS011;33908;47.436;18.918;2022-08-03T09:24:02;5.25;;;3.87;;
48124;SDS011;33908;47.436;18.918;2022-08-03T09:26:48;4.20;;;3.80;;
48124;SDS011;33908;47.436;18.918;2022-08-03T09:29:21;5.57;;;3.70;;
48124;SDS011;33908;47.436;18.918;2022-08-03T09:31:59;5.15;;;4.45;;
48124;SDS011;33908;47.436;18.918;2022-08-03T09:34:33;4.47;;;3.75;;
48124;SDS011;33908;47.436;18.918;2022-08-03T09:37:12;5.93;;;3.92;;
48124;SDS011;33908;47.436;18.918;2022-08-03T09:39:45;4.12;;;3.70;;
48124;SDS011;33908;47.436;18.918;2022-08-03T09:42:16;4.10;;;3.78;;
48124;SDS011;33908;47.436;18.918;2022-08-03T09:44:54;6.50;;;4.53;;
48124;SDS011;33908;47.436;18.918;2022-08-03T09:50:11;4.35;;;3.92;;
48124;SDS011;33908;47.436;18.918;2022-08-03T09:52:40;4.55;;;3.40;;
48124;SDS011;33908;47.436;18.918;2022-08-03T09:55:22;5.03;;;3.42;;
48124;SDS011;33908;47.436;18.918;2022-08-03T09:58:12;3.83;;;3.53;;
48124;SDS011;33908;47.436;18.918;2022-08-03T10:01:14;4.60;;;4.03;;
48124;SDS011;33908;47.436;18.918;2022-08-03T10:03:56;6.70;;;5.25;;
48124;SDS011;33908;47.436;18.918;2022-08-03T10:06:38;4.65;;;4.03;;
48124;SDS011;33908;47.436;18.918;2022-08-03T10:11:44;11.35;;;3.95;;
48124;SDS011;33908;47.436;18.918;2022-08-03T10:14:13;3.83;;;3.35;;
48124;SDS011;33908;47.436;18.918;2022-08-03T10:16:48;4.47;;;3.03;;
48124;SDS011;33908;47.436;18.918;2022-08-03T10:21:55;4.12;;;3.10;;
48124;SDS011;33908;47.436;18.918;2022-08-03T10:24:27;6.28;;;3.62;;
48124;SDS011;33908;47.436;18.918;2022-08-03T10:27:06;4.80;;;3.42;;
48124;SDS011;33908;47.436;18.918;2022-08-03T10:29:37;4.12;;;3.30;;
48124;SDS011;33908;47.436;18.918;2022-08-03T10:35:18;4.20;;;3.85;;
48124;SDS011;33908;47.436;18.918;2022-08-03T10:38:00;4.45;;;4.10;;
48124;SDS011;33908;47.436;18.918;2022-08-03T10:40:32;3.90;;;3.60;;
48124;SDS011;33908;47.436;18.918;2022-08-03T10:43:35;4.68;;;3.65;;
48124;SDS011;33908;47.436;18.918;2022-08-03T10:46:13;6.80;;;3.65;;
48124;SDS011;33908;47.436;18.918;2022-08-03T10:51:27;8.23;;;3.33;;
48124;SDS011;33908;47.436;18.918;2022-08-03T10:54:03;3.85;;;3.37;;
48124;SDS011;33908;47.436;18.918;2022-08-03T11:02:18;5.22;;;3.03;;
48124;SDS011;33908;47.436;18.918;2022-08-03T11:05:05;4.90;;;2.75;;
48124;SDS011;33908;47.436;18.918;2022-08-03T11:08:39;3.37;;;3.08;;
48124;SDS011;33908;47.436;18.918;2022-08-03T11:11:00;2.83;;;2.60;;
48124;SDS011;33908;47.436;18.918;2022-08-03T11:13:32;3.12;;;2.47;;
48124;SDS011;33908;47.436;18.918;2022-08-03T11:19:01;3.65;;;2.12;;
48124;SDS011;33908;47.436;18.918;2022-08-03T11:32:58;2.80;;;2.47;;
48124;SDS011;33908;47.436;18.918;2022-08-03T11:38:26;4.75;;;3.30;;
48124;SDS011;33908;47.436;18.918;2022-08-03T11:40:55;4.40;;;4.00;;
48124;SDS011;33908;47.436;18.918;2022-08-03T11:46:05;3.05;;;2.80;;
48124;SDS011;33908;47.436;18.918;2022-08-03T11:51:27;3.58;;;3.28;;
48124;SDS011;33908;47.436;18.918;2022-08-03T11:54:00;3.17;;;2.97;;
48124;SDS011;33908;47.436;18.918;2022-08-03T11:56:47;3.40;;;3.00;;
48124;SDS011;33908;47.436;18.918;2022-08-03T11:59:31;4.87;;;3.10;;
48124;SDS011;33908;47.436;18.918;2022-08-03T12:02:09;3.05;;;2.62;;
48124;SDS011;33908;47.436;18.918;2022-08-03T12:04:49;2.95;;;2.75;;
48124;SDS011;33908;47.436;18.918;2022-08-03T12:07:29;3.42;;;3.03;;
48124;SDS011;33908;47.436;18.918;2022-08-03T12:10:18;9.10;;;3.30;;
48124;SDS011;33908;47.436;18.918;2022-08-03T12:12:55;3.30;;;2.97;;
48124;SDS011;33908;47.436;18.918;2022-08-03T12:15:30;3.78;;;2.60;;
48124;SDS011;33908;47.436;18.918;2022-08-03T12:18:14;3.28;;;2.97;;
48124;SDS011;33908;47.436;18.918;2022-08-03T12:20:44;7.50;;;3.08;;
48124;SDS011;33908;47.436;18.918;2022-08-03T12:23:13;2.90;;;2.70;;
48124;SDS011;33908;47.436;18.918;2022-08-03T12:25:43;4.32;;;2.60;;
48124;SDS011;33908;47.436;18.918;2022-08-03T12:28:18;2.72;;;2.50;;
48124;SDS011;33908;47.436;18.918;2022-08-03T12:31:04;2.72;;;2.50;;
48124;SDS011;33908;47.436;18.918;2022-08-03T12:36:36;3.05;;;2.55;;
48124;SDS011;33908;47.436;18.918;2022-08-03T12:39:09;3.35;;;3.05;;
48124;SDS011;33908;47.436;18.918;2022-08-03T12:41:43;3.55;;;2.45;;
48124;SDS011;33908;47.436;18.918;2022-08-03T12:44:12;3.10;;;2.83;;
48124;SDS011;33908;47.436;18.918;2022-08-03T12:46:43;2.75;;;2.40;;
48124;SDS011;33908;47.436;18.918;2022-08-03T12:49:15;2.92;;;2.62;;
48124;SDS011;33908;47.436;18.918;2022-08-03T12:54:26;3.40;;;2.62;;
48124;SDS011;33908;47.436;18.918;2022-08-03T12:59:33;4.43;;;2.30;;
48124;SDS011;33908;47.436;18.918;2022-08-03T13:02:21;2.97;;;2.78;;
48124;SDS011;33908;47.436;18.918;2022-08-03T13:04:51;4.35;;;2.85;;
48124;SDS011;33908;47.436;18.918;2022-08-03T13:07:24;7.53;;;2.72;;
48124;SDS011;33908;47.436;18.918;2022-08-03T13:09:59;2.30;;;1.75;;
48124;SDS011;33908;47.436;18.918;2022-08-03T13:12:48;2.53;;;2.33;;
48124;SDS011;33908;47.436;18.918;2022-08-03T13:15:17;2.62;;;2.42;;
48124;SDS011;33908;47.436;18.918;2022-08-03T13:17:47;2.65;;;2.40;;
48124;SDS011;33908;47.436;18.918;2022-08-03T13:20:15;3.55;;;2.03;;
48124;SDS011;33908;47.436;18.918;2022-08-03T13:22:46;2.12;;;1.90;;
48124;SDS011;33908;47.436;18.918;2022-08-03T13:25:17;8.45;;;2.87;;
48124;SDS011;33908;47.436;18.918;2022-08-03T13:27:50;3.62;;;2.65;;
48124;SDS011;33908;47.436;18.918;2022-08-03T13:30:40;2.50;;;2.30;;
48124;SDS011;33908;47.436;18.918;2022-08-03T13:33:12;2.97;;;2.65;;
48124;SDS011;33908;47.436;18.918;2022-08-03T13:35:51;3.40;;;2.25;;
48124;SDS011;33908;47.436;18.918;2022-08-03T13:38:22;2.90;;;2.70;;
48124;SDS011;33908;47.436;18.918;2022-08-03T13:41:02;3.05;;;2.08;;
48124;SDS011;33908;47.436;18.918;2022-08-03T13:43:39;3.50;;;2.53;;
48124;SDS011;33908;47.436;18.918;2022-08-03T13:46:12;5.00;;;2.50;;
48124;SDS011;33908;47.436;18.918;2022-08-03T13:48:48;2.78;;;2.20;;
48124;SDS011;33908;47.436;18.918;2022-08-03T13:51:36;3.90;;;2.35;;
48124;SDS011;33908;47.436;18.918;2022-08-03T13:54:06;3.22;;;2.92;;
48124;SDS011;33908;47.436;18.918;2022-08-03T13:59:42;2.92;;;2.58;;
48124;SDS011;33908;47.436;18.918;2022-08-03T14:02:11;3.45;;;3.08;;
48124;SDS011;33908;47.436;18.918;2022-08-03T14:04:44;2.67;;;2.47;;
48124;SDS011;33908;47.436;18.918;2022-08-03T14:07:14;2.90;;;2.37;;
48124;SDS011;33908;47.436;18.918;2022-08-03T14:12:25;3.22;;;2.70;;
48124;SDS011;33908;47.436;18.918;2022-08-03T14:14:58;4.50;;;2.92;;
48124;SDS011;33908;47.436;18.918;2022-08-03T14:17:34;3.08;;;2.80;;
48124;SDS011;33908;47.436;18.918;2022-08-03T14:20:18;3.33;;;3.08;;
48124;SDS011;33908;47.436;18.918;2022-08-03T14:23:07;4.28;;;2.95;;
48124;SDS011;33908;47.436;18.918;2022-08-03T14:25:38;3.03;;;2.70;;
48124;SDS011;33908;47.436;18.918;2022-08-03T14:30:56;3.12;;;2.70;;
48124;SDS011;33908;47.436;18.918;2022-08-03T14:33:33;3.30;;;2.97;;
48124;SDS011;33908;47.436;18.918;2022-08-03T14:36:11;2.83;;;2.62;;
48124;SDS011;33908;47.436;18.918;2022-08-03T14:38:41;2.83;;;2.62;;
48124;SDS011;33908;47.436;18.918;2022-08-03T14:41:09;4.60;;;2.75;;
48124;SDS011;33908;47.436;18.918;2022-08-03T14:43:46;4.37;;;2.25;;
48124;SDS011;33908;47.436;18.918;2022-08-03T14:46:29;4.30;;;2.85;;
48124;SDS011;33908;47.436;18.918;2022-08-03T14:49:00;2.75;;;2.55;;
48124;SDS011;33908;47.436;18.918;2022-08-03T14:51:35;3.33;;;3.00;;
48124;SDS011;33908;47.436;18.918;2022-08-03T14:54:20;2.92;;;2.58;;
48124;SDS011;33908;47.436;18.918;2022-08-03T14:56:59;3.45;;;2.40;;
48124;SDS011;33908;47.436;18.918;2022-08-03T14:59:33;3.15;;;2.85;;
48124;SDS011;33908;47.436;18.918;2022-08-03T15:02:22;2.95;;;2.75;;
48124;SDS011;33908;47.436;18.918;2022-08-03T15:04:53;2.83;;;2.63;;
48124;SDS011;33908;47.436;18.918;2022-08-03T15:07:22;3.95;;;2.72;;
48124;SDS011;33908;47.436;18.918;2022-08-03T15:09:54;3.08;;;2.78;;
48124;SDS011;33908;47.436;18.918;2022-08-03T15:12:30;3.85;;;2.60;;
48124;SDS011;33908;47.436;18.918;2022-08-03T15:15:05;2.60;;;2.40;;
48124;SDS011;33908;47.436;18.918;2022-08-03T15:17:36;3.83;;;3.03;;
48124;SDS011;33908;47.436;18.918;2022-08-03T15:20:27;3.00;;;2.70;;
48124;SDS011;33908;47.436;18.918;2022-08-03T15:23:14;3.10;;;2.80;;
48124;SDS011;33908;47.436;18.918;2022-08-03T15:25:51;3.10;;;2.85;;
48124;SDS011;33908;47.436;18.918;2022-08-03T15:28:52;2.67;;;2.47;;
48124;SDS011;33908;47.436;18.918;2022-08-03T15:31:22;5.28;;;3.05;;
48124;SDS011;33908;47.436;18.918;2022-08-03T15:40:15;3.05;;;2.67;;
48124;SDS011;33908;47.436;18.918;2022-08-03T15:45:22;5.50;;;2.75;;
48124;SDS011;33908;47.436;18.918;2022-08-03T15:47:54;5.43;;;3.33;;
48124;SDS011;33908;47.436;18.918;2022-08-03T15:50:29;3.50;;;2.97;;
48124;SDS011;33908;47.436;18.918;2022-08-03T15:55:49;3.33;;;3.03;;
48124;SDS011;33908;47.436;18.918;2022-08-03T15:58:20;5.03;;;2.75;;
48124;SDS011;33908;47.436;18.918;2022-08-03T16:04:36;5.53;;;2.55;;
48124;SDS011;33908;47.436;18.918;2022-08-03T16:07:04;2.60;;;2.40;;
48124;SDS011;33908;47.436;18.918;2022-08-03T16:09:39;3.10;;;2.80;;
48124;SDS011;33908;47.436;18.918;2022-08-03T16:12:13;3.65;;;2.72;;
48124;SDS011;33908;47.436;18.918;2022-08-03T16:14:44;2.65;;;2.45;;
48124;SDS011;33908;47.436;18.918;2022-08-03T16:17:25;3.30;;;2.60;;
48124;SDS011;33908;47.436;18.918;2022-08-03T16:20:00;2.42;;;2.10;;
48124;SDS011;33908;47.436;18.918;2022-08-03T16:22:45;3.33;;;2.55;;
48124;SDS011;33908;47.436;18.918;2022-08-03T16:25:16;2.95;;;2.75;;
48124;SDS011;33908;47.436;18.918;2022-08-03T16:27:46;2.70;;;2.50;;
48124;SDS011;33908;47.436;18.918;2022-08-03T16:30:35;5.82;;;2.50;;
48124;SDS011;33908;47.436;18.918;2022-08-03T16:33:04;3.50;;;2.67;;
48124;SDS011;33908;47.436;18.918;2022-08-03T16:35:45;5.85;;;2.40;;
48124;SDS011;33908;47.436;18.918;2022-08-03T16:38:14;3.10;;;2.80;;
48124;SDS011;33908;47.436;18.918;2022-08-03T16:40:48;3.28;;;2.97;;
48124;SDS011;33908;47.436;18.918;2022-08-03T16:43:27;3.60;;;2.83;;
48124;SDS011;33908;47.436;18.918;2022-08-03T16:45:57;3.75;;;3.00;;
48124;SDS011;33908;47.436;18.918;2022-08-03T16:48:31;2.58;;;2.37;;
48124;SDS011;33908;47.436;18.918;2022-08-03T16:51:04;6.95;;;3.17;;
48124;SDS011;33908;47.436;18.918;2022-08-03T16:53:32;4.15;;;2.97;;
48124;SDS011;33908;47.436;18.918;2022-08-03T16:56:21;3.30;;;3.00;;
48124;SDS011;33908;47.436;18.918;2022-08-03T17:01:32;3.15;;;2.45;;
48124;SDS011;33908;47.436;18.918;2022-08-03T17:04:07;2.80;;;2.45;;
48124;SDS011;33908;47.436;18.918;2022-08-03T17:06:43;4.43;;;3.12;;
48124;SDS011;33908;47.436;18.918;2022-08-03T17:09:12;5.47;;;2.83;;
48124;SDS011;33908;47.436;18.918;2022-08-03T17:11:55;8.07;;;2.90;;